Springfork, Missouri
Current Conditions -  °F | °C
As of 3:23 AM on Monday 24 Nov 2014 (Local Time) from KDMO Reporting Station
Overcast Overcast  
Wind Chill: 30°   Ceiling: 3000
Heat Index: 40°   Visibility: 10mi
Dew Point: 31°   Wind: 21mph
Humidity: 70%   Direction: 290°WNW
Pressure: 29.51"   Gusts: 31mph
Location:  38.6763°N, 93.2612°W
Report Text: KDMO 240923Z AUTO 29018G27KT 10SM OVC030 04/M01 A2951 RMK AO2 PK WND 29032/0855 T00441006
Loading
Personal Weather Stations






























Interactive Weather Map New forecast layout! Learn more

10-Day Weather Forecast

Advertisements
Track Severe Weather on mobile